YTLG weather

Taralga Grathawa Airport
New South Wales, Australia

Public forecast

Using degrees Celsius for public forecast. Weather courtesy of forecast.io.

Closest aviation weather report (METAR) to Taralga Grathawa Airport

Closest report is Nowra Airport, 54.4 nm (100.8 km) SE. Retrieved 2020/04/05 22:00 UTC (37 minutes ago):

YSNW 052200Z 28014KT 9999 SCT030 18/10 Q1017 INTER 0000/0100 4000 SHRA BKN015

Closest aviation forecast (TAF) to Taralga Grathawa Airport

Closest forecast is RAAF Base Richmond, 64.7 nm (119.8 km) NE. Retrieved 2020/04/05 18:36 UTC (4 hours ago):

TAF YSRI 051704Z 0518/0618 35006KT CAVOK FM052300 24008KT CAVOK FM060600 16010KT 9999 FEW035 FM061000 23005KT 9999 -SHRA SCT020 BKN040